EPSC

Szczecin-Goleniów "Solidarność" Airport

Goleniow, Poland
METAR EPSC 221830Z 26006KT 9999 SCT035 BKN041 07/04 Q1026
Observed Flight Rules
Oct-22 @ 18:30 UTC (11 minutes ago) Visual Flight Rules
Wind Visibility Clouds
260° at 6 knots 10,000+ meters
  • Scattered at 3,500' AGL
  • Broken at 4,100' AGL
Temperatures Readings
Current 7°C / 45°F
Dewpoint 4°C / 39°F
Humidity 81%
Altimeter 30.3" Hg
Pressure 1026 hPa
Elevation 47
METAR EPSC 221830Z 26006KT 9999 SCT035 BKN041 07/04 Q1026
Observed Flight Rules
Oct-22 @ 18:30 UTC
(11 minutes ago)
VFR
Wind Visibility
260° at 6 knots 10,000+ meters
Clouds
  • Scattered at 3,500' AGL
  • Broken at 4,100' AGL
Temperature Dewpoint
7°C / 45°F 4°C / 39°F
Humidity Altimeter Pressure
81% 30.3" Hg 1026 hPa